createdAt,value
2022-11-23T00:01:32.846Z,82.60
2022-11-23T00:04:06.526Z,78.63
2022-11-23T00:06:35.433Z,84.47
2022-11-23T00:09:04.960Z,85.78
2022-11-23T00:11:35.532Z,78.53
2022-11-23T00:14:05.249Z,81.93
2022-11-23T00:16:33.744Z,85.03
2022-11-23T00:19:03.184Z,87.90
2022-11-23T00:21:33.394Z,87.60
2022-11-23T00:24:02.308Z,84.45
2022-11-23T00:26:30.535Z,86.65
2022-11-23T00:28:59.061Z,93.90
2022-11-23T00:31:30.937Z,96.57
2022-11-23T00:34:02.420Z,86.20
2022-11-23T00:36:30.783Z,86.85
2022-11-23T00:39:01.909Z,87.68
2022-11-23T00:41:30.160Z,92.13
2022-11-23T00:43:58.942Z,97.05
2022-11-23T00:46:28.481Z,100.13
2022-11-23T00:48:58.988Z,88.68
2022-11-23T00:51:33.212Z,95.40
2022-11-23T00:54:04.189Z,90.80
2022-11-23T00:56:34.187Z,90.50
2022-11-23T00:59:04.290Z,93.57
2022-11-23T01:01:37.173Z,86.35
2022-11-23T01:04:07.911Z,96.32
2022-11-23T01:06:38.719Z,100.65
2022-11-23T01:09:17.596Z,95.03
2022-11-23T01:11:46.050Z,96.65
2022-11-23T01:14:14.548Z,101.05
2022-11-23T01:16:43.360Z,106.50
2022-11-23T01:19:16.954Z,91.85
2022-11-23T01:21:47.989Z,96.47
2022-11-23T01:24:19.539Z,92.47
2022-11-23T01:26:55.253Z,102.00
2022-11-23T01:29:24.540Z,98.60
2022-11-23T01:31:52.826Z,107.90
2022-11-23T01:34:23.519Z,98.53
2022-11-23T01:36:51.958Z,103.82
2022-11-23T01:39:20.780Z,99.22
2022-11-23T01:41:49.074Z,103.95
2022-11-23T01:44:27.869Z,114.00
2022-11-23T01:47:07.997Z,106.78
2022-11-23T01:49:41.014Z,102.85
2022-11-23T01:52:16.091Z,109.25
2022-11-23T01:54:48.801Z,108.25
2022-11-23T01:57:21.657Z,103.55
2022-11-23T01:59:51.686Z,115.95
2022-11-23T02:02:19.923Z,111.70
2022-11-23T02:04:54.252Z,121.85
2022-11-23T02:07:24.410Z,112.20
2022-11-23T02:09:53.537Z,114.80
2022-11-23T02:12:21.816Z,111.13
2022-11-23T02:14:50.600Z,128.55
2022-11-23T02:17:22.312Z,131.55
2022-11-23T02:20:10.462Z,118.47
2022-11-23T02:23:09.121Z,121.20
2022-11-23T02:26:00.169Z,118.95
2022-11-23T02:28:42.464Z,117.57
2022-11-23T02:31:11.644Z,125.32
2022-11-23T02:33:40.508Z,117.70
2022-11-23T02:36:45.037Z,108.38
2022-11-23T02:39:17.421Z,109.60
2022-11-23T02:41:55.540Z,113.35
2022-11-23T02:45:05.168Z,114.90
2022-11-23T02:47:33.660Z,122.30
2022-11-23T02:50:05.694Z,125.07
2022-11-23T02:52:34.240Z,121.03
2022-11-23T02:55:02.406Z,124.30
2022-11-23T02:57:31.626Z,116.72
2022-11-23T03:00:00.891Z,120.63
2022-11-23T03:02:29.467Z,111.50
2022-11-23T03:04:57.851Z,113.40
2022-11-23T03:07:26.506Z,111.05
2022-11-23T03:09:55.231Z,125.18
2022-11-23T03:12:23.947Z,110.47
2022-11-23T03:14:52.398Z,107.90
2022-11-23T03:17:21.719Z,104.72
2022-11-23T03:19:51.371Z,113.60
2022-11-23T03:22:20.170Z,115.03
2022-11-23T03:24:48.724Z,108.10
2022-11-23T03:27:19.311Z,101.97
2022-11-23T03:29:48.544Z,99.60
2022-11-23T03:32:21.368Z,101.10
2022-11-23T03:34:53.889Z,99.28
2022-11-23T03:37:24.415Z,96.13
2022-11-23T03:39:54.270Z,91.22
2022-11-23T03:42:54.740Z,101.53
2022-11-23T03:45:22.966Z,102.00
2022-11-23T03:47:52.683Z,101.05
2022-11-23T03:50:20.897Z,99.93
2022-11-23T03:52:50.130Z,101.68
2022-11-23T03:55:19.555Z,90.97
2022-11-23T03:57:49.010Z,100.63
2022-11-23T04:00:17.403Z,96.45
2022-11-23T04:02:47.910Z,98.10
2022-11-23T04:05:42.132Z,98.18
2022-11-23T04:08:46.050Z,92.70
2022-11-23T04:11:21.437Z,89.10
2022-11-23T04:13:51.335Z,92.35
2022-11-23T04:16:20.771Z,96.57
2022-11-23T04:18:49.722Z,91.07
2022-11-23T04:21:18.306Z,93.78
2022-11-23T04:23:47.134Z,89.95
2022-11-23T04:26:16.665Z,95.18
2022-11-23T04:28:47.606Z,83.55
2022-11-23T04:31:16.744Z,96.50
2022-11-23T04:33:57.284Z,87.60
2022-11-23T04:36:27.750Z,96.65
2022-11-23T04:38:56.308Z,88.00
2022-11-23T04:41:34.552Z,91.10
2022-11-23T04:44:05.012Z,87.70
2022-11-23T04:46:35.848Z,91.90
2022-11-23T04:49:10.476Z,90.80
2022-11-23T04:51:39.760Z,93.18
2022-11-23T04:54:09.818Z,95.00
2022-11-23T04:56:49.071Z,91.82
2022-11-23T04:59:19.643Z,91.63
2022-11-23T05:01:48.270Z,88.85
2022-11-23T05:04:36.703Z,93.95
2022-11-23T05:07:05.690Z,92.28
2022-11-23T05:09:36.258Z,90.03
2022-11-23T05:12:12.998Z,91.65
2022-11-23T05:14:43.520Z,91.88
2022-11-23T05:17:13.697Z,94.90
2022-11-23T05:19:45.609Z,97.80
2022-11-23T05:22:14.717Z,106.50
2022-11-23T05:24:44.770Z,111.70
2022-11-23T05:27:17.663Z,119.50
2022-11-23T05:29:48.331Z,118.20
2022-11-23T05:32:17.435Z,121.63
2022-11-23T05:34:46.477Z,115.50
2022-11-23T05:37:17.467Z,110.93
2022-11-23T05:40:01.816Z,110.32
2022-11-23T05:42:33.264Z,98.80
2022-11-23T05:45:11.672Z,110.28
2022-11-23T05:47:50.375Z,105.28
2022-11-23T05:50:26.219Z,96.35
2022-11-23T05:53:14.587Z,103.45
2022-11-23T05:55:46.514Z,92.55
2022-11-23T05:58:15.380Z,99.72
2022-11-23T06:00:43.990Z,98.97
2022-11-23T06:03:12.188Z,100.72
2022-11-23T06:05:42.237Z,92.53
2022-11-23T06:08:11.156Z,94.53
2022-11-23T06:10:41.249Z,91.93
2022-11-23T06:13:09.562Z,89.80
2022-11-23T06:15:38.147Z,87.80
2022-11-23T06:18:06.824Z,93.15
2022-11-23T06:20:46.236Z,88.55
2022-11-23T06:23:14.896Z,92.40
2022-11-23T06:25:43.370Z,96.43
2022-11-23T06:28:24.447Z,91.57
2022-11-23T06:30:56.415Z,96.38
2022-11-23T06:33:25.783Z,95.45
2022-11-23T06:35:57.356Z,92.00
2022-11-23T06:38:30.099Z,90.65
2022-11-23T06:41:04.109Z,102.07
2022-11-23T06:43:33.105Z,97.28
2022-11-23T06:46:06.965Z,91.63
2022-11-23T06:48:39.300Z,93.22
2022-11-23T06:51:09.451Z,95.30
2022-11-23T06:53:39.177Z,91.35
2022-11-23T06:56:09.845Z,98.05
2022-11-23T06:58:38.435Z,89.32
2022-11-23T07:01:13.195Z,90.88
2022-11-23T07:03:54.645Z,101.40
2022-11-23T07:06:30.253Z,95.57
2022-11-23T07:11:45.923Z,87.25
2022-11-23T07:14:19.509Z,100.47
2022-11-23T07:16:52.277Z,96.28
2022-11-23T07:19:20.902Z,89.47
2022-11-23T07:21:51.403Z,90.72
2022-11-23T07:24:19.900Z,98.82
2022-11-23T07:26:48.597Z,106.50
2022-11-23T07:29:16.939Z,100.57
2022-11-23T07:31:45.445Z,106.07
2022-11-23T07:34:15.340Z,98.75
2022-11-23T07:36:45.284Z,111.45
2022-11-23T07:39:14.503Z,179.02
2022-11-23T07:41:43.566Z,147.55
2022-11-23T07:44:19.962Z,114.55
2022-11-23T07:46:48.487Z,100.07
2022-11-23T07:49:16.615Z,100.97
2022-11-23T07:51:49.152Z,102.38
2022-11-23T07:54:23.369Z,92.13
2022-11-23T07:56:53.458Z,88.57
2022-11-23T07:59:21.587Z,88.75
2022-11-23T08:01:54.343Z,86.40
2022-11-23T08:04:26.873Z,91.32
2022-11-23T08:06:56.088Z,93.20
2022-11-23T08:09:24.706Z,96.70
2022-11-23T08:11:53.802Z,91.20
2022-11-23T08:14:22.063Z,92.75
2022-11-23T08:16:51.450Z,93.00
2022-11-23T08:19:19.688Z,101.30
2022-11-23T08:21:48.283Z,92.53
2022-11-23T08:24:16.499Z,87.88
2022-11-23T08:26:45.269Z,83.53
2022-11-23T08:29:13.710Z,82.25
2022-11-23T08:31:42.495Z,85.15
2022-11-23T08:34:10.927Z,80.80
2022-11-23T08:36:39.862Z,85.68
2022-11-23T08:39:08.884Z,80.88
2022-11-23T08:41:38.406Z,74.22
2022-11-23T08:44:09.887Z,86.25
2022-11-23T08:46:39.279Z,73.95
2022-11-23T08:49:07.796Z,76.15
2022-11-23T08:51:36.803Z,80.82
2022-11-23T08:54:05.205Z,78.28
2022-11-23T08:56:34.090Z,74.68
2022-11-23T08:59:02.385Z,75.32
2022-11-23T09:01:31.426Z,76.90
2022-11-23T09:03:59.710Z,88.63
2022-11-23T09:06:29.342Z,80.03
2022-11-23T09:08:57.645Z,75.65
2022-11-23T09:11:26.507Z,83.40
2022-11-23T09:13:54.998Z,84.03
2022-11-23T09:16:23.667Z,80.53
2022-11-23T09:18:55.811Z,79.97
2022-11-23T09:21:29.547Z,79.45
2022-11-23T09:23:57.840Z,78.50
2022-11-23T09:26:27.087Z,69.45
2022-11-23T09:28:55.212Z,70.13
2022-11-23T09:31:24.147Z,70.35
2022-11-23T09:33:54.500Z,73.32
2022-11-23T09:36:23.075Z,74.78
2022-11-23T09:38:56.576Z,78.60
2022-11-23T09:41:54.445Z,83.45
2022-11-23T09:44:43.972Z,77.15
2022-11-23T09:47:51.739Z,74.78
2022-11-23T09:50:27.187Z,69.68
2022-11-23T09:52:56.132Z,71.28
2022-11-23T09:55:44.912Z,66.95
2022-11-23T09:58:17.345Z,60.83
2022-11-23T10:03:18.862Z,63.70
2022-11-23T10:05:57.939Z,67.35
2022-11-23T10:08:40.890Z,68.32
2022-11-23T10:14:37.578Z,66.90
2022-11-23T10:17:29.026Z,70.53
2022-11-23T10:20:22.624Z,73.43
2022-11-23T10:23:02.232Z,76.30
2022-11-23T10:25:45.633Z,69.72
2022-11-23T10:28:17.690Z,69.13
2022-11-23T10:30:57.269Z,70.00
2022-11-23T10:33:43.446Z,71.00
2022-11-23T10:36:13.897Z,75.07
2022-11-23T10:38:43.205Z,76.85
2022-11-23T10:41:14.439Z,71.38
2022-11-23T10:43:55.122Z,66.07
2022-11-23T10:46:28.439Z,56.97
2022-11-23T10:49:15.700Z,60.90
2022-11-23T10:51:54.078Z,60.30
2022-11-23T10:54:55.607Z,69.28
2022-11-23T10:57:42.550Z,65.80
2022-11-23T11:00:11.197Z,62.17
2022-11-23T11:02:42.008Z,70.78
2022-11-23T11:05:53.138Z,62.50
2022-11-23T11:08:18.674Z,63.65
2022-11-23T11:11:08.209Z,67.10
2022-11-23T11:13:46.271Z,67.18
2022-11-23T11:16:27.758Z,70.63
2022-11-23T11:18:57.159Z,65.70
2022-11-23T11:21:35.200Z,72.30
2022-11-23T11:24:07.200Z,62.92
2022-11-23T11:26:36.352Z,58.00
2022-11-23T11:29:10.243Z,60.90
2022-11-23T11:31:53.104Z,59.67
2022-11-23T11:34:30.460Z,61.88
2022-11-23T11:37:14.021Z,74.15
2022-11-23T11:39:48.306Z,84.30
2022-11-23T11:42:33.935Z,71.13
2022-11-23T11:45:07.562Z,65.18
2022-11-23T11:47:46.295Z,65.57
2022-11-23T11:50:32.070Z,62.17
2022-11-23T11:53:06.120Z,65.88
2022-11-23T11:55:55.132Z,60.30
2022-11-23T11:58:26.554Z,65.35
2022-11-23T12:03:45.361Z,58.47
2022-11-23T12:06:26.808Z,64.90
2022-11-23T12:09:26.278Z,66.10
2022-11-23T12:11:54.937Z,69.03
2022-11-23T12:14:23.151Z,64.00
2022-11-23T12:17:31.933Z,68.32
2022-11-23T12:20:14.160Z,71.18
2022-11-23T12:22:57.878Z,67.60
2022-11-23T12:25:36.805Z,72.97
2022-11-23T12:28:40.843Z,75.55
2022-11-23T12:31:39.455Z,73.47
2022-11-23T12:34:26.280Z,67.57
2022-11-23T12:37:15.732Z,70.50
2022-11-23T12:40:40.144Z,68.78
2022-11-23T12:43:17.861Z,69.20
2022-11-23T12:46:18.889Z,66.50
2022-11-23T12:49:10.272Z,69.32
2022-11-23T12:52:10.629Z,81.55
2022-11-23T12:54:41.665Z,77.55
2022-11-23T12:57:21.036Z,76.63
2022-11-23T13:00:03.433Z,71.03
2022-11-23T13:02:57.175Z,68.78
2022-11-23T13:05:39.242Z,66.50
2022-11-23T13:08:10.691Z,72.32
2022-11-23T13:10:53.050Z,76.73
2022-11-23T13:14:00.327Z,65.18
2022-11-23T13:17:04.121Z,63.78
2022-11-23T13:20:09.171Z,65.10
2022-11-23T13:22:39.713Z,70.82
2022-11-23T13:25:08.160Z,65.57
2022-11-23T13:27:48.518Z,62.90
2022-11-23T13:30:35.588Z,56.70
2022-11-23T13:33:20.000Z,62.83
2022-11-23T13:35:57.846Z,59.70
2022-11-23T13:38:35.522Z,65.35
2022-11-23T13:41:29.148Z,71.88
2022-11-23T13:44:18.765Z,66.38
2022-11-23T13:47:18.595Z,73.65
2022-11-23T13:49:53.135Z,79.93
2022-11-23T13:52:24.527Z,63.33
2022-11-23T13:55:13.212Z,71.50
2022-11-23T13:58:18.924Z,73.80
2022-11-23T14:00:59.228Z,75.88
2022-11-23T14:07:07.117Z,83.43
2022-11-23T14:09:45.891Z,75.88
2022-11-23T14:12:46.879Z,77.03
2022-11-23T14:15:24.167Z,67.75
2022-11-23T14:18:30.365Z,64.20
2022-11-23T14:21:16.154Z,75.68
2022-11-23T14:24:14.167Z,74.30
2022-11-23T14:27:48.021Z,71.75
2022-11-23T14:30:40.604Z,62.20
2022-11-23T14:33:44.670Z,63.58
2022-11-23T14:36:42.188Z,60.25
2022-11-23T14:39:33.393Z,82.07
2022-11-23T14:42:05.189Z,71.18
2022-11-23T14:44:38.616Z,67.85
2022-11-23T14:47:09.264Z,69.53
2022-11-23T14:49:49.684Z,85.25
2022-11-23T14:52:25.004Z,88.60
2022-11-23T14:54:57.781Z,78.00
2022-11-23T14:57:36.275Z,83.65
2022-11-23T15:00:11.440Z,92.57
2022-11-23T15:02:41.429Z,83.25
2022-11-23T15:05:24.463Z,82.13
2022-11-23T15:10:33.252Z,96.47
2022-11-23T15:13:01.466Z,72.93
2022-11-23T15:15:31.342Z,76.32
2022-11-23T15:18:02.116Z,99.07
2022-11-23T15:20:39.536Z,105.20
2022-11-23T15:23:23.525Z,98.38
2022-11-23T15:25:57.072Z,103.35
2022-11-23T15:28:37.495Z,96.20
2022-11-23T15:31:22.353Z,80.15
2022-11-23T15:33:54.683Z,74.65
2022-11-23T15:36:28.046Z,118.93
2022-11-23T15:38:58.270Z,118.60
2022-11-23T15:41:31.795Z,97.55
2022-11-23T15:44:02.035Z,98.68
2022-11-23T15:46:37.476Z,93.10
2022-11-23T15:49:13.278Z,97.28
2022-11-23T15:51:44.310Z,94.90
2022-11-23T15:54:19.986Z,99.15
2022-11-23T15:56:51.245Z,82.55
2022-11-23T15:59:44.050Z,70.18
2022-11-23T16:02:17.805Z,83.97
2022-11-23T16:04:46.792Z,109.03
2022-11-23T16:07:55.284Z,106.60
2022-11-23T16:13:53.451Z,95.82
2022-11-23T16:20:21.873Z,77.95
2022-11-23T16:22:54.523Z,85.18
2022-11-23T16:25:28.943Z,83.78
2022-11-23T16:27:59.864Z,78.30
2022-11-23T16:30:37.072Z,88.55
2022-11-23T16:33:05.989Z,86.55
2022-11-23T16:35:34.861Z,95.53
2022-11-23T16:38:03.245Z,92.05
2022-11-23T16:40:33.062Z,129.68
2022-11-23T16:43:01.289Z,81.65
2022-11-23T16:46:19.442Z,140.57
2022-11-23T16:54:13.815Z,122.13
2022-11-23T16:56:42.689Z,143.10
2022-11-23T16:59:18.514Z,133.65
2022-11-23T17:01:53.963Z,102.75
2022-11-23T17:04:25.804Z,122.55
2022-11-23T17:07:34.826Z,121.63
2022-11-23T17:10:03.428Z,88.70
2022-11-23T17:12:31.981Z,119.53
2022-11-23T17:15:00.561Z,153.60
2022-11-23T17:17:30.293Z,127.28
2022-11-23T17:20:03.908Z,117.28
2022-11-23T17:22:32.816Z,174.48
2022-11-23T17:25:01.307Z,99.30
2022-11-23T17:27:33.179Z,155.50
2022-11-23T17:30:06.679Z,100.50
2022-11-23T17:32:35.088Z,91.78
2022-11-23T17:35:04.377Z,93.35
2022-11-23T17:37:41.881Z,92.43
2022-11-23T17:47:34.664Z,86.53
2022-11-23T17:50:03.284Z,81.50
2022-11-23T17:52:40.683Z,80.70
2022-11-23T17:55:10.620Z,83.82
2022-11-23T17:57:39.480Z,92.78
2022-11-23T18:00:26.137Z,96.70
2022-11-23T18:02:59.058Z,93.32
2022-11-23T18:05:32.243Z,109.13
2022-11-23T18:08:00.911Z,115.93
2022-11-23T18:10:29.399Z,114.88
2022-11-23T18:12:58.534Z,115.90
2022-11-23T18:15:27.590Z,143.50
2022-11-23T18:18:01.543Z,144.25
2022-11-23T18:20:33.701Z,170.70
2022-11-23T18:23:02.521Z,206.00
2022-11-23T18:25:30.809Z,135.07
2022-11-23T18:27:59.565Z,117.35
2022-11-23T18:30:29.364Z,115.65
2022-11-23T18:33:48.885Z,108.72
2022-11-23T18:36:24.948Z,179.52
2022-11-23T18:38:53.627Z,107.82
2022-11-23T18:41:22.711Z,101.53
2022-11-23T18:43:51.868Z,118.18
2022-11-23T18:46:23.402Z,124.00
2022-11-23T18:51:28.623Z,85.53
2022-11-23T18:53:58.255Z,83.47
2022-11-23T18:56:26.471Z,81.38
2022-11-23T18:58:55.897Z,85.20
2022-11-23T19:01:24.532Z,84.78
2022-11-23T19:03:53.819Z,88.95
2022-11-23T19:06:23.373Z,92.07
2022-11-23T19:08:54.751Z,99.70
2022-11-23T19:11:25.587Z,103.75
2022-11-23T19:13:57.559Z,114.18
2022-11-23T19:16:30.121Z,109.13
2022-11-23T19:20:12.023Z,113.15
2022-11-23T19:22:18.471Z,111.03
2022-11-23T19:24:47.744Z,101.90
2022-11-23T19:27:16.051Z,125.65
2022-11-23T19:29:44.888Z,141.20
2022-11-23T19:32:13.299Z,127.43
2022-11-23T19:34:42.071Z,112.88
2022-11-23T19:37:11.308Z,106.97
2022-11-23T19:39:40.104Z,99.15
2022-11-23T19:42:35.818Z,138.52
2022-11-23T19:45:54.845Z,246.20
2022-11-23T19:51:11.989Z,303.05
2022-11-23T19:53:43.340Z,134.88
2022-11-23T19:56:16.187Z,102.78
2022-11-23T19:58:44.606Z,112.60
2022-11-23T20:01:39.678Z,110.75
2022-11-23T20:04:12.980Z,123.55
2022-11-23T20:06:45.350Z,125.50
2022-11-23T20:09:19.581Z,112.40
2022-11-23T20:11:51.262Z,96.72
2022-11-23T20:14:20.728Z,97.70
2022-11-23T20:16:49.479Z,140.35
2022-11-23T20:19:43.120Z,137.73
2022-11-23T20:28:38.704Z,113.00
2022-11-23T20:31:20.671Z,97.18
2022-11-23T20:34:29.975Z,124.20
2022-11-23T20:37:00.150Z,88.13
2022-11-23T20:39:29.232Z,96.18
2022-11-23T20:41:58.807Z,97.85
2022-11-23T20:44:52.213Z,104.50
2022-11-23T20:47:23.925Z,97.50
2022-11-23T20:52:23.900Z,95.43
2022-11-23T20:54:55.896Z,87.88
2022-11-23T21:01:32.903Z,78.32
2022-11-23T21:04:28.188Z,85.72
2022-11-23T21:11:26.719Z,98.75
2022-11-23T21:14:16.978Z,88.28
2022-11-23T21:16:59.644Z,80.20
2022-11-23T21:19:56.353Z,64.22
2022-11-23T21:23:23.158Z,60.70
2022-11-23T21:25:52.798Z,85.93
2022-11-23T21:30:54.265Z,69.03
2022-11-23T21:33:22.596Z,73.63
2022-11-23T21:35:54.913Z,69.93
2022-11-23T21:38:34.522Z,68.85
2022-11-23T21:41:05.604Z,60.35
2022-11-23T21:43:34.237Z,62.70
2022-11-23T21:46:24.855Z,71.22
2022-11-23T21:48:55.357Z,66.75
2022-11-23T21:51:26.884Z,69.10
2022-11-23T21:53:58.892Z,68.17
2022-11-23T21:56:28.765Z,68.50
2022-11-23T21:58:57.457Z,67.50
2022-11-23T22:01:31.753Z,58.20
2022-11-23T22:04:09.106Z,62.60
2022-11-23T22:06:39.291Z,65.75
2022-11-23T22:09:09.803Z,60.83
2022-11-23T22:11:41.469Z,65.03
2022-11-23T22:14:13.365Z,71.15
2022-11-23T22:19:16.313Z,63.55
2022-11-23T22:21:46.260Z,63.20
2022-11-23T22:24:19.798Z,69.18
2022-11-23T22:26:49.338Z,71.93
2022-11-23T22:29:17.846Z,68.15
2022-11-23T22:31:46.626Z,64.68
2022-11-23T22:34:15.233Z,67.55
2022-11-23T22:36:44.281Z,61.97
2022-11-23T22:39:12.742Z,66.32
2022-11-23T22:41:42.122Z,68.22
2022-11-23T22:44:11.286Z,68.13
2022-11-23T22:46:40.116Z,67.80
2022-11-23T22:49:09.080Z,66.50
2022-11-23T22:51:37.629Z,66.30
2022-11-23T22:54:06.533Z,68.68
2022-11-23T22:56:34.842Z,73.38
2022-11-23T22:59:03.835Z,69.03
2022-11-23T23:01:32.375Z,69.63
2022-11-23T23:04:02.604Z,66.07
2022-11-23T23:06:35.176Z,67.95
2022-11-23T23:09:06.476Z,66.13
2022-11-23T23:11:37.248Z,71.67
2022-11-23T23:14:06.818Z,69.32
2022-11-23T23:16:36.011Z,68.63
2022-11-23T23:19:04.947Z,71.07
2022-11-23T23:21:33.187Z,71.25
2022-11-23T23:24:02.454Z,68.15
2022-11-23T23:26:31.098Z,68.85
2022-11-23T23:29:01.627Z,64.30
2022-11-23T23:31:30.922Z,69.20
2022-11-23T23:34:00.197Z,71.22
2022-11-23T23:36:29.216Z,74.15
2022-11-23T23:38:59.276Z,71.32
2022-11-23T23:41:27.633Z,72.55
2022-11-23T23:43:56.506Z,68.88
2022-11-23T23:46:25.055Z,71.47
2022-11-23T23:48:53.780Z,68.68
2022-11-23T23:51:25.459Z,77.85
2022-11-23T23:53:54.368Z,79.43
2022-11-23T23:56:43.478Z,68.07
2022-11-23T23:59:12.298Z,66.88
